Ryuhomaru — JD2639 — position and weather

sailwx.info

Track history (hours):
 
Tides and Currents Weather Stations Pressure Air Temp Water Temp Dewpoint Dewpoint Depression Visibility Wind Speed Wind Dir Waves Ship Positions

Ryuhomaru

Last reported at 2017-Feb-26 05:32 UTC. Time now 2017-Feb-26 06:04 UTC.
Position N 34°27' E 135°21'.

Length 42 m; draft 3.5 m.

Type: Tug. MMSI: 431000586.

Date/timePositionNaut miles runAvg speedWind from/ knotsBaromVisibWave heightAir tempDewpointWater temp
2017-Feb-26 05:32N 34°27' E 135°21'5 2.3
2017-Feb-26 03:32N 34°32' E 135°23'1 0.9
2017-Feb-26 02:32N 34°33' E 135°23'1 1.3
2017-Feb-26 01:31N 34°32' E 135°22'6 6.5
2017-Feb-26 00:33N 34°26' E 135°19'1 1.1
2017-Feb-25 23:32N 34°27' E 135°19'3 2.9
2017-Feb-25 22:25N 34°30' E 135°21'6 6.8
2017-Feb-25 21:33N 34°33' E 135°27'0 0.0
2017-Feb-25 04:33N 34°33' E 135°27'0 0.0
2017-Feb-25 03:33N 34°33' E 135°27'0 0.0
2017-Feb-25 02:33N 34°33' E 135°27'0 0.0
2017-Feb-25 01:34N 34°33' E 135°27'1 1.3
2017-Feb-25 00:34N 34°33' E 135°25'3 3.1
2017-Feb-24 23:31N 34°33' E 135°21'4 4.1
2017-Feb-24 22:33N 34°33' E 135°26'0 0.0
2017-Feb-23 08:32N 34°33' E 135°27'6 6.3
2017-Feb-23 07:33N 34°39' E 135°24'6 6.1
2017-Feb-23 06:30N 34°33' E 135°24'2 0.3
2017-Feb-22 23:15N 34°31' E 135°24'3 4.4
2017-Feb-22 22:31N 34°33' E 135°26'1 0.7
2017-Feb-22 21:33N 34°33' E 135°27'0 0.0
2017-Feb-22 09:06N 34°33' E 135°27'3 5.8
2017-Feb-22 08:32N 34°35' E 135°24'4 4.2
2017-Feb-22 07:33N 34°39' E 135°26'1 0.4
2017-Feb-22 05:33N 34°40' E 135°26'4 2.1
2017-Feb-22 03:33N 34°36' E 135°24'0 0.0
2017-Feb-22 02:27N 34°36' E 135°24'0 0.0
2017-Feb-22 01:33N 34°36' E 135°24'3 3.1
2017-Feb-22 00:28N 34°33' E 135°25'1 1.1
2017-Feb-21 23:33N 34°33' E 135°27'4 0.2
2017-Feb-21 03:25N 34°33' E 135°21'0 0.3
2017-Feb-21 02:32N 34°33' E 135°21'3 1.7
2017-Feb-21 00:29N 34°33' E 135°25'1 0.7
2017-Feb-20 23:30N 34°33' E 135°26'1 0.5
2017-Feb-20 22:32N 34°33' E 135°27'1 0.0
2017-Feb-19 07:33N 34°33' E 135°26'0 0.0
2017-Feb-19 06:33N 34°33' E 135°26'1 1.0
2017-Feb-19 05:33N 34°33' E 135°25'3 2.6
2017-Feb-19 04:33N 34°34' E 135°22'4 4.1
2017-Feb-19 03:33N 34°33' E 135°27'0 0.0
2017-Feb-19 02:33N 34°33' E 135°27'0 0.0
2017-Feb-19 01:33N 34°33' E 135°27'1 0.5
2017-Feb-19 00:29N 34°33' E 135°26'1 0.6
2017-Feb-18 23:33N 34°33' E 135°27'0 0.0
2017-Feb-18 22:34N 34°33' E 135°27'4 0.2
2017-Feb-18 00:25N 34°33' E 135°22'3 3.0
2017-Feb-17 23:33N 34°33' E 135°25'0 0.1
2017-Feb-17 22:33N 34°33' E 135°25'0 0.1
2017-Feb-17 21:28N 34°33' E 135°25'0 0.1
2017-Feb-17 20:28N 34°33' E 135°25'0 0.1
2017-Feb-17 19:33N 34°33' E 135°25'0 0.1
2017-Feb-17 18:33N 34°33' E 135°25'0 0.0
2017-Feb-17 17:33N 34°33' E 135°25'0 0.1
2017-Feb-17 16:33N 34°33' E 135°25'0 0.0
2017-Feb-17 15:34N 34°33' E 135°25'0 0.0
2017-Feb-17 14:33N 34°33' E 135°25'0 0.1
2017-Feb-17 13:33N 34°33' E 135°25'0 0.1
2017-Feb-17 12:33N 34°33' E 135°25'0 0.0
2017-Feb-17 11:33N 34°33' E 135°25'0 0.1
2017-Feb-17 10:33N 34°33' E 135°25'0 0.0
2017-Feb-17 09:30N 34°33' E 135°25'0 0.1
2017-Feb-17 08:32N 34°33' E 135°25'0 0.0
2017-Feb-17 07:25N 34°33' E 135°25'0 0.0
2017-Feb-17 05:19N 34°33' E 135°25'0 0.1
2017-Feb-17 04:26N 34°33' E 135°25'0 0.1
2017-Feb-17 03:27N 34°33' E 135°25'0 0.1
2017-Feb-17 02:33N 34°33' E 135°25'0 0.1
2017-Feb-17 01:33N 34°33' E 135°25'4 3.9
2017-Feb-17 00:33N 34°34' E 135°20'3 3.3
2017-Feb-16 23:33N 34°33' E 135°24'2 2.0
2017-Feb-16 22:33N 34°33' E 135°27'0 0.0
2017-Feb-16 07:24N 34°33' E 135°27'2 2.3
2017-Feb-16 06:29N 34°34' E 135°24'  
Track history (hours):
 
Tides and Currents Weather Stations Pressure Air Temp Water Temp Dewpoint Dewpoint Depression Visibility Wind Speed Wind Dir Waves Ship Positions

Ryuhomaru

Last reported at 2017-Feb-26 05:32 UTC. Time now 2017-Feb-26 06:04 UTC.
Position N 34°27' E 135°21'.

Length 42 m; draft 3.5 m.

Type: Tug. MMSI: 431000586.

Date/timePositionNaut miles runAvg speedWind from/ knotsBaromVisibWave heightAir tempDewpointWater temp
2017-Feb-26 05:32N 34°27' E 135°21'5 2.3
2017-Feb-26 03:32N 34°32' E 135°23'1 0.9
2017-Feb-26 02:32N 34°33' E 135°23'1 1.3
2017-Feb-26 01:31N 34°32' E 135°22'6 6.5
2017-Feb-26 00:33N 34°26' E 135°19'1 1.1
2017-Feb-25 23:32N 34°27' E 135°19'3 2.9
2017-Feb-25 22:25N 34°30' E 135°21'6 6.8
2017-Feb-25 21:33N 34°33' E 135°27'0 0.0
2017-Feb-25 04:33N 34°33' E 135°27'0 0.0
2017-Feb-25 03:33N 34°33' E 135°27'0 0.0
2017-Feb-25 02:33N 34°33' E 135°27'0 0.0
2017-Feb-25 01:34N 34°33' E 135°27'1 1.3
2017-Feb-25 00:34N 34°33' E 135°25'3 3.1
2017-Feb-24 23:31N 34°33' E 135°21'4 4.1
2017-Feb-24 22:33N 34°33' E 135°26'0 0.0
2017-Feb-23 08:32N 34°33' E 135°27'6 6.3
2017-Feb-23 07:33N 34°39' E 135°24'6 6.1
2017-Feb-23 06:30N 34°33' E 135°24'2 0.3
2017-Feb-22 23:15N 34°31' E 135°24'3 4.4
2017-Feb-22 22:31N 34°33' E 135°26'1 0.7
2017-Feb-22 21:33N 34°33' E 135°27'0 0.0
2017-Feb-22 09:06N 34°33' E 135°27'3 5.8
2017-Feb-22 08:32N 34°35' E 135°24'4 4.2
2017-Feb-22 07:33N 34°39' E 135°26'1 0.4
2017-Feb-22 05:33N 34°40' E 135°26'4 2.1
2017-Feb-22 03:33N 34°36' E 135°24'0 0.0
2017-Feb-22 02:27N 34°36' E 135°24'0 0.0
2017-Feb-22 01:33N 34°36' E 135°24'3 3.1
2017-Feb-22 00:28N 34°33' E 135°25'1 1.1
2017-Feb-21 23:33N 34°33' E 135°27'4 0.2
2017-Feb-21 03:25N 34°33' E 135°21'0 0.3
2017-Feb-21 02:32N 34°33' E 135°21'3 1.7
2017-Feb-21 00:29N 34°33' E 135°25'1 0.7
2017-Feb-20 23:30N 34°33' E 135°26'1 0.5
2017-Feb-20 22:32N 34°33' E 135°27'1 0.0
2017-Feb-19 07:33N 34°33' E 135°26'0 0.0
2017-Feb-19 06:33N 34°33' E 135°26'1 1.0
2017-Feb-19 05:33N 34°33' E 135°25'3 2.6
2017-Feb-19 04:33N 34°34' E 135°22'4 4.1
2017-Feb-19 03:33N 34°33' E 135°27'0 0.0
2017-Feb-19 02:33N 34°33' E 135°27'0 0.0
2017-Feb-19 01:33N 34°33' E 135°27'1 0.5
2017-Feb-19 00:29N 34°33' E 135°26'1 0.6
2017-Feb-18 23:33N 34°33' E 135°27'0 0.0
2017-Feb-18 22:34N 34°33' E 135°27'4 0.2
2017-Feb-18 00:25N 34°33' E 135°22'3 3.0
2017-Feb-17 23:33N 34°33' E 135°25'0 0.1
2017-Feb-17 22:33N 34°33' E 135°25'0 0.1
2017-Feb-17 21:28N 34°33' E 135°25'0 0.1
2017-Feb-17 20:28N 34°33' E 135°25'0 0.1
2017-Feb-17 19:33N 34°33' E 135°25'0 0.1
2017-Feb-17 18:33N 34°33' E 135°25'0 0.0
2017-Feb-17 17:33N 34°33' E 135°25'0 0.1
2017-Feb-17 16:33N 34°33' E 135°25'0 0.0
2017-Feb-17 15:34N 34°33' E 135°25'0 0.0
2017-Feb-17 14:33N 34°33' E 135°25'0 0.1
2017-Feb-17 13:33N 34°33' E 135°25'0 0.1
2017-Feb-17 12:33N 34°33' E 135°25'0 0.0
2017-Feb-17 11:33N 34°33' E 135°25'0 0.1
2017-Feb-17 10:33N 34°33' E 135°25'0 0.0
2017-Feb-17 09:30N 34°33' E 135°25'0 0.1
2017-Feb-17 08:32N 34°33' E 135°25'0 0.0
2017-Feb-17 07:25N 34°33' E 135°25'0 0.0
2017-Feb-17 05:19N 34°33' E 135°25'0 0.1
2017-Feb-17 04:26N 34°33' E 135°25'0 0.1
2017-Feb-17 03:27N 34°33' E 135°25'0 0.1
2017-Feb-17 02:33N 34°33' E 135°25'0 0.1
2017-Feb-17 01:33N 34°33' E 135°25'4 3.9
2017-Feb-17 00:33N 34°34' E 135°20'3 3.3
2017-Feb-16 23:33N 34°33' E 135°24'2 2.0
2017-Feb-16 22:33N 34°33' E 135°27'0 0.0
2017-Feb-16 07:24N 34°33' E 135°27'2 2.3
2017-Feb-16 06:29N 34°34' E 135°24'  

Dump ship's entire track history